Terminal Aerodrome Forecast
Issued by NWS Wilmington, OH

Current Version | Previous Version | Graphics & Text | Print | Product List | Glossary On
Versions: 1 2 3 4 5 6 7 8 9 10 11 12 13 14 15 16 17 18 19 20 21 22 23 24 25 26 27 28
000
FTUS41 KILN 281129
TAFCVG
TAF
KCVG 281129Z 2812/2918 12004KT 5SM BR SCT100
     FM281300 12004KT P6SM SCT080
     FM281700 07005KT P6SM VCSH FEW025 BKN040
     FM290000 VRB04KT P6SM FEW040 SCT250
     FM290600 VRB02KT 4SM BR SCT250
     FM291000 VRB02KT 2SM BR SCT250
     FM291300 VRB03KT P6SM BKN250=

USA.gov is the U.S. government's official web portal to all federal, state and local government web resources and services.